createdAt,value
2022-08-14T00:02:27.242Z,27.44
2022-08-14T00:07:25.123Z,27.62
2022-08-14T00:12:24.134Z,27.52
2022-08-14T00:17:21.416Z,27.66
2022-08-14T00:22:44.691Z,28.00
2022-08-14T00:27:38.098Z,27.89
2022-08-14T00:33:02.033Z,28.20
2022-08-14T00:37:51.639Z,28.49
2022-08-14T00:42:54.821Z,28.30
2022-08-14T00:47:52.789Z,27.91
2022-08-14T00:52:51.145Z,27.58
2022-08-14T00:58:08.823Z,26.54
2022-08-14T01:03:08.308Z,26.34
2022-08-14T01:08:06.531Z,26.01
2022-08-14T01:13:25.752Z,26.03
2022-08-14T01:19:01.460Z,25.88
2022-08-14T01:23:59.958Z,25.57
2022-08-14T01:28:59.337Z,25.67
2022-08-14T01:35:15.991Z,25.62
2022-08-14T01:39:14.915Z,25.03
2022-08-14T01:44:32.242Z,24.94
2022-08-14T01:49:35.568Z,24.69
2022-08-14T01:54:38.243Z,24.96
2022-08-14T01:59:37.838Z,24.68
2022-08-14T02:04:55.638Z,24.97
2022-08-14T02:09:55.997Z,24.91
2022-08-14T02:15:00.546Z,24.97
2022-08-14T02:19:58.683Z,25.21
2022-08-14T02:24:56.099Z,25.40
2022-08-14T02:29:56.221Z,25.50
2022-08-14T02:34:56.497Z,25.60
2022-08-14T02:39:58.123Z,25.30
2022-08-14T02:44:54.856Z,25.03
2022-08-14T02:49:56.778Z,24.88
2022-08-14T02:54:53.764Z,24.76
2022-08-14T02:59:51.520Z,25.12
2022-08-14T03:04:49.170Z,25.06
2022-08-14T03:10:25.491Z,24.94
2022-08-14T03:15:13.749Z,24.78
2022-08-14T03:20:12.781Z,24.87
2022-08-14T03:25:11.615Z,25.05
2022-08-14T03:30:14.293Z,24.77
2022-08-14T03:35:11.479Z,24.90
2022-08-14T03:40:12.013Z,24.68
2022-08-14T03:45:19.260Z,25.05
2022-08-14T03:50:27.953Z,25.23
2022-08-14T03:55:28.351Z,25.55
2022-08-14T04:00:41.032Z,25.65
2022-08-14T04:05:43.501Z,25.88
2022-08-14T04:10:45.941Z,26.22
2022-08-14T04:15:56.122Z,26.85
2022-08-14T04:20:58.832Z,27.31
2022-08-14T04:25:55.445Z,27.37
2022-08-14T04:30:52.724Z,27.69
2022-08-14T04:35:57.169Z,27.84
2022-08-14T04:41:12.173Z,28.00
2022-08-14T04:46:11.929Z,28.00
2022-08-14T04:51:28.198Z,27.84
2022-08-14T04:56:30.732Z,27.81
2022-08-14T05:01:39.564Z,27.52
2022-08-14T05:06:39.880Z,27.44
2022-08-14T05:11:36.922Z,26.99
2022-08-14T05:16:34.395Z,27.18
2022-08-14T05:22:00.516Z,26.77
2022-08-14T05:26:47.952Z,26.50
2022-08-14T05:31:45.365Z,26.62
2022-08-14T05:36:42.598Z,26.68
2022-08-14T05:41:53.792Z,27.09
2022-08-14T05:46:51.524Z,27.58
2022-08-14T05:51:51.707Z,27.86
2022-08-14T05:56:48.323Z,28.13
2022-08-14T06:01:45.052Z,28.26
2022-08-14T06:06:44.171Z,28.43
2022-08-14T06:11:40.791Z,28.37
2022-08-14T06:16:40.519Z,28.58
2022-08-14T06:21:40.521Z,28.65
2022-08-14T06:26:39.055Z,28.57
2022-08-14T06:31:37.766Z,28.62
2022-08-14T06:36:38.214Z,28.74
2022-08-14T06:41:57.481Z,28.42
2022-08-14T06:46:53.729Z,28.33
2022-08-14T06:51:51.232Z,28.20
2022-08-14T06:56:54.186Z,28.31
2022-08-14T07:02:13.731Z,28.63
2022-08-14T07:07:15.505Z,28.93
2022-08-14T07:12:54.681Z,28.94
2022-08-14T07:17:32.198Z,29.04
2022-08-14T07:22:50.094Z,28.58
2022-08-14T07:27:48.392Z,28.68
2022-08-14T07:32:46.421Z,28.89
2022-08-14T07:37:46.938Z,28.46
2022-08-14T07:42:44.658Z,28.68
2022-08-14T07:47:43.465Z,28.91
2022-08-14T07:52:40.344Z,29.26
2022-08-14T07:57:40.749Z,29.47
2022-08-14T08:02:38.723Z,29.57
2022-08-14T08:07:39.206Z,29.75
2022-08-14T08:12:36.197Z,30.01
2022-08-14T08:17:38.626Z,30.18
2022-08-14T08:22:43.382Z,30.29
2022-08-14T08:27:53.953Z,30.42
2022-08-14T08:32:53.773Z,30.53
2022-08-14T08:38:01.051Z,30.66
2022-08-14T08:42:59.087Z,30.68
2022-08-14T08:47:56.689Z,30.66
2022-08-14T08:52:54.947Z,30.70
2022-08-14T08:57:55.399Z,30.72
2022-08-14T09:02:56.953Z,30.76
2022-08-14T09:07:56.591Z,30.76
2022-08-14T09:12:55.563Z,30.83
2022-08-14T09:17:52.587Z,30.78
2022-08-14T09:22:53.315Z,30.11
2022-08-14T09:27:52.004Z,28.85
2022-08-14T09:32:59.139Z,28.84
2022-08-14T09:38:25.750Z,28.38
2022-08-14T09:43:29.177Z,28.24
2022-08-14T09:48:31.087Z,28.20
2022-08-14T09:54:12.704Z,28.43
2022-08-14T09:58:58.359Z,28.91
2022-08-14T10:03:56.448Z,29.19
2022-08-14T10:09:00.078Z,29.40
2022-08-14T10:14:01.838Z,29.31
2022-08-14T10:19:04.704Z,29.47
2022-08-14T10:24:08.327Z,29.69
2022-08-14T10:29:19.232Z,29.54
2022-08-14T10:34:20.465Z,29.42
2022-08-14T10:39:26.913Z,29.55
2022-08-14T10:44:32.625Z,29.47
2022-08-14T10:49:29.902Z,29.52
2022-08-14T10:54:36.055Z,29.58
2022-08-14T10:59:43.205Z,29.68
2022-08-14T11:04:40.404Z,29.56
2022-08-14T11:09:41.831Z,29.58
2022-08-14T11:14:39.962Z,29.61
2022-08-14T11:19:38.809Z,29.61
2022-08-14T11:24:55.401Z,29.54
2022-08-14T11:30:00.372Z,29.41
2022-08-14T11:34:57.747Z,29.44
2022-08-14T11:39:54.429Z,29.47
2022-08-14T11:44:53.816Z,29.21
2022-08-14T11:49:55.464Z,29.10
2022-08-14T11:54:57.363Z,29.02
2022-08-14T12:00:00.694Z,28.83
2022-08-14T12:04:59.513Z,28.72
2022-08-14T12:09:56.897Z,28.17
2022-08-14T12:14:56.109Z,27.85
2022-08-14T12:19:56.495Z,27.91
2022-08-14T12:24:54.438Z,28.06
2022-08-14T12:29:52.156Z,27.93
2022-08-14T12:34:53.111Z,27.50
2022-08-14T12:39:51.871Z,27.44
2022-08-14T12:44:50.035Z,27.47
2022-08-14T12:49:51.875Z,27.29
2022-08-14T12:55:06.576Z,26.27
2022-08-14T13:00:22.969Z,25.80
2022-08-14T13:05:23.471Z,24.85
2022-08-14T13:10:47.145Z,23.66
2022-08-14T13:15:40.204Z,22.65
2022-08-14T13:20:37.557Z,22.66
2022-08-14T13:25:37.216Z,22.97
2022-08-14T13:30:33.937Z,23.17
2022-08-14T13:35:31.346Z,23.37
2022-08-14T13:40:29.299Z,23.26
2022-08-14T13:45:33.829Z,24.01
2022-08-14T13:50:44.924Z,24.25
2022-08-14T13:55:42.205Z,23.89
2022-08-14T14:00:52.957Z,23.78
2022-08-14T14:05:54.329Z,23.39
2022-08-14T14:10:53.163Z,23.31
2022-08-14T14:15:58.377Z,23.28
2022-08-14T14:20:57.409Z,23.31
2022-08-14T14:25:57.470Z,23.14
2022-08-14T14:30:57.142Z,23.41
2022-08-14T14:35:54.750Z,23.56
2022-08-14T14:41:00.815Z,23.58
2022-08-14T14:45:57.992Z,24.31
2022-08-14T14:50:56.412Z,24.54
2022-08-14T14:56:50.489Z,24.68
2022-08-14T15:01:13.819Z,25.08
2022-08-14T15:06:11.280Z,24.83
2022-08-14T15:11:14.965Z,24.75
2022-08-14T15:16:12.137Z,24.81
2022-08-14T15:21:09.905Z,24.14
2022-08-14T15:26:07.180Z,23.47
2022-08-14T15:31:05.306Z,23.01
2022-08-14T15:36:05.632Z,22.83
2022-08-14T15:41:24.110Z,22.98
2022-08-14T15:46:41.206Z,22.80
2022-08-14T15:51:42.306Z,22.92
2022-08-14T15:56:42.865Z,23.13
2022-08-14T16:01:53.364Z,23.37
2022-08-14T16:06:54.696Z,23.63
2022-08-14T16:11:53.786Z,23.88
2022-08-14T16:16:59.874Z,23.87
2022-08-14T16:22:57.250Z,23.97
2022-08-14T16:27:33.732Z,24.20
2022-08-14T16:32:36.216Z,24.39
2022-08-14T16:37:49.107Z,24.12
2022-08-14T16:43:04.396Z,24.29
2022-08-14T16:48:55.298Z,23.99
2022-08-14T16:53:25.970Z,23.71
2022-08-14T16:58:29.769Z,23.47
2022-08-14T17:03:28.558Z,23.37
2022-08-14T17:08:46.386Z,22.97
2022-08-14T17:14:00.682Z,23.02
2022-08-14T17:19:01.517Z,22.84
2022-08-14T17:24:00.496Z,23.01
2022-08-14T17:29:04.244Z,23.21
2022-08-14T17:34:03.144Z,23.32
2022-08-14T17:39:06.799Z,23.54
2022-08-14T17:44:11.924Z,23.79
2022-08-14T17:49:14.262Z,23.88
2022-08-14T17:54:15.379Z,24.08
2022-08-14T17:59:20.798Z,24.88
2022-08-14T18:04:28.504Z,25.25
2022-08-14T18:09:26.061Z,25.41
2022-08-14T18:14:33.049Z,25.50
2022-08-14T18:19:36.250Z,25.49
2022-08-14T18:24:39.840Z,24.90
2022-08-14T18:29:42.535Z,25.06
2022-08-14T18:34:50.986Z,24.81
2022-08-14T18:40:02.740Z,24.85
2022-08-14T18:45:12.569Z,25.11
2022-08-14T18:50:26.035Z,24.83
2022-08-14T18:55:53.342Z,24.46
2022-08-14T19:00:54.192Z,24.65
2022-08-14T19:05:58.405Z,24.65
2022-08-14T19:10:57.670Z,24.76
2022-08-14T19:16:06.904Z,24.04
2022-08-14T19:21:13.498Z,23.87
2022-08-14T19:26:36.150Z,23.35
2022-08-14T19:31:42.428Z,23.02
2022-08-14T19:37:04.804Z,23.09
2022-08-14T19:42:02.732Z,23.16
2022-08-14T19:47:11.446Z,23.09
2022-08-14T19:52:20.927Z,22.84
2022-08-14T19:57:18.864Z,22.96
2022-08-14T20:02:24.174Z,23.03
2022-08-14T20:08:00.122Z,23.29
2022-08-14T20:12:57.765Z,24.04
2022-08-14T20:17:54.917Z,24.59
2022-08-14T20:22:52.756Z,24.87
2022-08-14T20:27:58.680Z,25.10
2022-08-14T20:32:57.143Z,25.19
2022-08-14T20:38:00.067Z,25.42
2022-08-14T20:43:36.013Z,25.46
2022-08-14T20:48:53.096Z,25.36
2022-08-14T20:53:57.023Z,25.36
2022-08-14T20:58:53.709Z,25.35
2022-08-14T21:03:57.342Z,25.01
2022-08-14T21:08:57.070Z,24.25
2022-08-14T21:14:24.994Z,23.75
2022-08-14T21:19:16.469Z,23.55
2022-08-14T21:24:38.614Z,23.60
2022-08-14T21:29:33.726Z,23.32
2022-08-14T21:34:32.629Z,23.24
2022-08-14T21:39:29.584Z,23.14
2022-08-14T21:44:43.005Z,23.13
2022-08-14T21:49:43.160Z,22.97
2022-08-14T21:54:49.795Z,22.95
2022-08-14T21:59:47.146Z,22.91
2022-08-14T22:04:48.665Z,22.94
2022-08-14T22:09:54.758Z,22.98
2022-08-14T22:14:51.903Z,23.03
2022-08-14T22:19:55.257Z,22.99
2022-08-14T22:24:59.771Z,23.07
2022-08-14T22:29:57.751Z,23.18
2022-08-14T22:34:56.115Z,23.25
2022-08-14T22:40:57.469Z,23.25
2022-08-14T22:45:11.730Z,23.30
2022-08-14T22:50:30.697Z,23.61
2022-08-14T22:55:27.297Z,23.43
2022-08-14T23:00:25.401Z,23.27
2022-08-14T23:05:38.925Z,23.82
2022-08-14T23:10:46.289Z,24.22
2022-08-14T23:15:44.996Z,24.70
2022-08-14T23:20:44.257Z,24.96
2022-08-14T23:25:59.866Z,24.96
2022-08-14T23:30:57.818Z,25.04
2022-08-14T23:35:59.190Z,24.72
2022-08-14T23:40:57.417Z,24.24
2022-08-14T23:45:57.860Z,24.46
2022-08-14T23:50:54.519Z,24.68
2022-08-14T23:55:54.691Z,24.80
